METAR Data
IDs: Format: Raw Decoded Include TAF

Data at: 0226 UTC 19 Oct 2021

KHOT 190153Z AUTO 07004KT 10SM CLR 13/07 A3012 RMK AO2 SLP198 T01280072
KHOT 190053Z AUTO 10003KT 10SM CLR 16/07 A3011 RMK AO2 SLP194 T01560067
KHOT 182353Z AUTO VRB03KT 10SM CLR 19/07 A3009 RMK AO2 SLP187 T01890067 10228 20189 56008
KHOT 182253Z AUTO 14006KT 10SM CLR 22/03 A3009 RMK AO2 SLP188 T02170033
KHOT 182153Z AUTO 16005KT 10SM CLR 23/04 A3009 RMK AO2 SLP187 T02280039
KHOT 182053Z AUTO 24004KT 10SM CLR 23/04 A3012 RMK AO2 SLP195 T02280044 56028
KHOT 181953Z AUTO VRB04KT 10SM CLR 22/04 A3014 RMK AO2 SLP202 T02220044
KHOT 181853Z AUTO 15008KT 10SM CLR 22/05 A3017 RMK AO2 SLP213 T02170050
KHOT 181753Z AUTO VRB03KT 10SM CLR 21/06 A3020 RMK AO2 SLP224 T02110056 10211 20072 58015
KHOT 181653Z AUTO VRB05KT 10SM CLR 19/07 A3023 RMK AO2 SLP232 T01940067
KHOT 181553Z AUTO VRB03KT 10SM CLR 17/08 A3024 RMK AO2 SLP239 T01720083
KHOT 181453Z AUTO 00000KT 10SM CLR 13/10 A3025 RMK AO2 SLP240 T01330100 53012
KHOT 181353Z AUTO 00000KT 10SM CLR 11/08 A3024 RMK AO2 SLP237 T01060083
KHOT 181253Z AUTO 00000KT 10SM CLR 08/06 A3021 RMK AO2 SLP230 T00780061
KHOT 181153Z AUTO 00000KT 10SM CLR 07/06 A3021 RMK AO2 SLP228 T00720061 10094 20072 51006
KHOT 181053Z AUTO 00000KT 10SM CLR 07/06 A3021 RMK AO2 SLP226 T00720061
KHOT 180953Z AUTO 00000KT 8SM CLR 08/06 A3020 RMK AO2 SLP222 T00780061
KHOT 180853Z AUTO 00000KT 10SM CLR 08/06 A3019 RMK AO2 SLP221 T00780061 58006
KHOT 180753Z AUTO 00000KT 10SM CLR 08/07 A3020 RMK AO2 SLP223 T00830067
KHOT 180653Z AUTO 00000KT 10SM CLR 09/07 A3021 RMK AO2 SLP225 T00890072
KHOT 180553Z AUTO 00000KT 10SM CLR 09/07 A3021 RMK AO2 SLP227 T00940072 10172 20094 402330061 58005
KHOT 180453Z AUTO 00000KT 10SM CLR 10/08 A3022 RMK AO2 SLP230 T01000078
KHOT 180353Z AUTO 00000KT 10SM CLR 11/08 A3023 RMK AO2 SLP235 T01110078
KHOT 180253Z AUTO 06004KT 10SM CLR 12/08 A3023 RMK AO2 SLP234 T01170078 53006
KHOT 180153Z AUTO 07003KT 10SM CLR 13/08 A3022 RMK AO2 SLP231 T01330078
KHOT 180053Z AUTO 05003KT 10SM CLR 15/07 A3021 RMK AO2 SLP230 T01500072 $
KHOT 172353Z AUTO 00000KT 10SM CLR 17/08 A3021 RMK AO2 SLP228 T01720078 10233 20167 56005
KHOT 172253Z AUTO 00000KT 10SM CLR 22/04 A3021 RMK AO2 SLP228 T02220039
KHOT 172153Z AUTO 20004KT 10SM CLR 23/03 A3021 RMK AO2 SLP227 T02280033
KHOT 172053Z AUTO 00000KT 10SM CLR 23/04 A3022 RMK AO2 SLP231 T02330039 56029
KHOT 171953Z AUTO VRB05KT 10SM CLR 22/03 A3024 RMK AO2 SLP237 T02220033
KHOT 171853Z AUTO VRB05KT 10SM CLR 23/03 A3027 RMK AO2 SLP246 T02280033
KHOT 171753Z AUTO 18006KT 10SM CLR 21/02 A3031 RMK AO2 SLP260 T02110022 10211 20061 58011
KHOT 171653Z AUTO 22004KT 10SM CLR 19/04 A3033 RMK AO2 SLP269 T01940044
KHOT 171553Z AUTO 29003KT 10SM CLR 17/08 A3035 RMK AO2 SLP274 T01720083
KHOT 171453Z AUTO 31003KT 10SM CLR 13/09 A3034 RMK AO2 SLP273 T01330094 53007